createdAt,value
2023-04-21T00:00:57.631Z,513.00
2023-04-21T00:01:57.678Z,513.00
2023-04-21T00:02:57.949Z,507.00
2023-04-21T00:03:57.882Z,507.00
2023-04-21T00:04:57.944Z,520.00
2023-04-21T00:05:57.910Z,512.00
2023-04-21T00:06:57.893Z,514.00
2023-04-21T00:07:57.924Z,510.00
2023-04-21T00:08:57.971Z,509.00
2023-04-21T00:09:58.045Z,511.00
2023-04-21T00:10:58.083Z,510.00
2023-04-21T00:11:58.144Z,507.00
2023-04-21T00:12:58.194Z,501.00
2023-04-21T00:13:58.217Z,508.00
2023-04-21T00:14:58.266Z,509.00
2023-04-21T00:15:58.414Z,508.00
2023-04-21T00:16:58.380Z,506.00
2023-04-21T00:17:58.473Z,507.00
2023-04-21T00:18:58.463Z,506.00
2023-04-21T00:19:58.505Z,512.00
2023-04-21T00:20:58.562Z,506.00
2023-04-21T00:21:58.777Z,505.00
2023-04-21T00:22:58.721Z,512.00
2023-04-21T00:23:58.715Z,510.00
2023-04-21T00:24:58.769Z,509.00
2023-04-21T00:25:58.805Z,505.00
2023-04-21T00:26:58.875Z,510.00
2023-04-21T00:27:58.920Z,504.00
2023-04-21T00:28:58.986Z,508.00
2023-04-21T00:29:59.014Z,501.00
2023-04-21T00:30:59.103Z,509.00
2023-04-21T00:31:59.137Z,503.00
2023-04-21T00:32:59.184Z,502.00
2023-04-21T00:33:59.210Z,514.00
2023-04-21T00:34:59.260Z,508.00
2023-04-21T00:35:59.387Z,514.00
2023-04-21T00:36:59.349Z,505.00
2023-04-21T00:37:59.387Z,514.00
2023-04-21T00:38:59.451Z,503.00
2023-04-21T00:39:59.532Z,512.00
2023-04-21T00:40:59.549Z,505.00
2023-04-21T00:41:59.675Z,503.00
2023-04-21T00:42:59.650Z,505.00
2023-04-21T00:43:59.684Z,507.00
2023-04-21T00:44:59.751Z,510.00
2023-04-21T00:46:00.610Z,509.00
2023-04-21T00:46:59.930Z,506.00
2023-04-21T00:47:59.987Z,504.00
2023-04-21T00:48:59.953Z,515.00
2023-04-21T00:50:00.050Z,508.00
2023-04-21T00:51:00.068Z,507.00
2023-04-21T00:52:00.152Z,503.00
2023-04-21T00:53:00.155Z,517.00
2023-04-21T00:54:00.216Z,510.00
2023-04-21T00:55:00.320Z,511.00
2023-04-21T00:56:00.316Z,515.00
2023-04-21T00:57:02.277Z,510.00
2023-04-21T00:58:00.444Z,515.00
2023-04-21T00:59:00.497Z,509.00
2023-04-21T01:00:00.533Z,507.00
2023-04-21T01:01:00.589Z,505.00
2023-04-21T01:02:00.743Z,503.00
2023-04-21T01:03:00.793Z,506.00
2023-04-21T01:04:01.021Z,506.00
2023-04-21T01:05:00.796Z,508.00
2023-04-21T01:06:00.860Z,500.00
2023-04-21T01:07:00.904Z,508.00
2023-04-21T01:08:00.942Z,515.00
2023-04-21T01:09:01.010Z,517.00
2023-04-21T01:10:01.059Z,514.00
2023-04-21T01:11:01.132Z,509.00
2023-04-21T01:12:01.182Z,515.00
2023-04-21T01:13:01.250Z,506.00
2023-04-21T01:14:01.280Z,512.00
2023-04-21T01:15:01.350Z,511.00
2023-04-21T01:16:01.447Z,507.00
2023-04-21T01:17:01.505Z,513.00
2023-04-21T01:18:01.547Z,508.00
2023-04-21T01:19:01.541Z,512.00
2023-04-21T01:20:01.604Z,512.00
2023-04-21T01:21:01.646Z,508.00
2023-04-21T01:22:01.712Z,509.00
2023-04-21T01:23:01.793Z,509.00
2023-04-21T01:24:01.810Z,507.00
2023-04-21T01:25:01.886Z,505.00
2023-04-21T01:26:01.889Z,513.00
2023-04-21T01:27:02.000Z,514.00
2023-04-21T01:28:02.035Z,511.00
2023-04-21T01:29:02.097Z,512.00
2023-04-21T01:30:02.120Z,504.00
2023-04-21T01:31:02.223Z,510.00
2023-04-21T01:32:02.382Z,506.00
2023-04-21T01:33:02.351Z,512.00
2023-04-21T01:34:02.352Z,505.00
2023-04-21T01:35:02.443Z,501.00
2023-04-21T01:36:02.501Z,501.00
2023-04-21T01:37:02.559Z,506.00
2023-04-21T01:38:02.596Z,505.00
2023-04-21T01:39:02.656Z,512.00
2023-04-21T01:40:02.738Z,507.00
2023-04-21T01:41:02.780Z,508.00
2023-04-21T01:42:02.830Z,507.00
2023-04-21T01:43:02.893Z,510.00
2023-04-21T01:44:02.961Z,509.00
2023-04-21T01:45:03.013Z,514.00
2023-04-21T01:46:03.106Z,516.00
2023-04-21T01:47:03.116Z,511.00
2023-04-21T01:48:03.197Z,517.00
2023-04-21T01:49:03.257Z,509.00
2023-04-21T01:50:03.280Z,507.00
2023-04-21T01:51:03.341Z,506.00
2023-04-21T01:52:03.383Z,502.00
2023-04-21T01:53:03.459Z,506.00
2023-04-21T01:54:03.501Z,514.00
2023-04-21T01:55:03.567Z,512.00
2023-04-21T01:56:03.612Z,513.00
2023-04-21T01:57:03.729Z,503.00
2023-04-21T01:58:03.740Z,514.00
2023-04-21T01:59:03.787Z,506.00
2023-04-21T02:00:03.819Z,518.00
2023-04-21T02:01:03.944Z,510.00
2023-04-21T02:02:04.067Z,512.00
2023-04-21T02:03:04.093Z,505.00
2023-04-21T02:04:04.399Z,512.00
2023-04-21T02:05:04.111Z,512.00
2023-04-21T02:06:04.113Z,517.00
2023-04-21T02:07:04.166Z,517.00
2023-04-21T02:08:04.270Z,508.00
2023-04-21T02:09:04.309Z,507.00
2023-04-21T02:10:04.348Z,505.00
2023-04-21T02:11:04.409Z,512.00
2023-04-21T02:12:04.462Z,517.00
2023-04-21T02:13:04.540Z,510.00
2023-04-21T02:14:04.572Z,512.00
2023-04-21T02:15:04.651Z,510.00
2023-04-21T02:16:13.225Z,512.00
2023-04-21T02:17:05.752Z,512.00
2023-04-21T02:18:04.692Z,512.00
2023-04-21T02:19:04.667Z,514.00
2023-04-21T02:20:04.642Z,511.00
2023-04-21T02:21:04.664Z,503.00
2023-04-21T02:22:04.683Z,501.00
2023-04-21T02:23:04.650Z,511.00
2023-04-21T02:24:04.612Z,512.00
2023-04-21T02:25:04.604Z,511.00
2023-04-21T02:26:04.642Z,511.00
2023-04-21T02:27:04.740Z,504.00
2023-04-21T02:28:04.786Z,506.00
2023-04-21T02:29:04.859Z,500.00
2023-04-21T02:30:04.885Z,514.00
2023-04-21T02:31:04.969Z,509.00
2023-04-21T02:32:14.245Z,513.00
2023-04-21T02:33:06.680Z,513.00
2023-04-21T02:34:05.006Z,514.00
2023-04-21T02:35:04.979Z,513.00
2023-04-21T02:36:04.982Z,514.00
2023-04-21T02:37:04.977Z,511.00
2023-04-21T02:38:04.972Z,510.00
2023-04-21T02:39:04.944Z,505.00
2023-04-21T02:40:04.929Z,506.00
2023-04-21T02:41:04.946Z,512.00
2023-04-21T02:42:05.001Z,511.00
2023-04-21T02:43:05.050Z,506.00
2023-04-21T02:44:05.097Z,509.00
2023-04-21T02:45:05.152Z,507.00
2023-04-21T02:46:05.272Z,516.00
2023-04-21T02:47:05.330Z,513.00
2023-04-21T02:48:05.399Z,511.00
2023-04-21T02:49:05.411Z,510.00
2023-04-21T02:50:05.542Z,513.00
2023-04-21T02:51:05.556Z,512.00
2023-04-21T02:52:05.635Z,510.00
2023-04-21T02:53:05.705Z,516.00
2023-04-21T02:54:05.740Z,513.00
2023-04-21T02:55:05.803Z,518.00
2023-04-21T02:56:05.862Z,516.00
2023-04-21T02:57:05.945Z,509.00
2023-04-21T02:58:05.976Z,512.00
2023-04-21T02:59:06.063Z,510.00
2023-04-21T03:00:06.125Z,508.00
2023-04-21T03:01:06.242Z,510.00
2023-04-21T03:02:06.321Z,504.00
2023-04-21T03:03:06.417Z,513.00
2023-04-21T03:04:06.567Z,507.00
2023-04-21T03:05:06.451Z,511.00
2023-04-21T03:06:06.519Z,504.00
2023-04-21T03:07:06.559Z,502.00
2023-04-21T03:08:06.619Z,511.00
2023-04-21T03:09:06.664Z,509.00
2023-04-21T03:10:06.700Z,508.00
2023-04-21T03:11:06.764Z,517.00
2023-04-21T03:12:06.818Z,513.00
2023-04-21T03:13:06.905Z,510.00
2023-04-21T03:14:06.901Z,508.00
2023-04-21T03:15:07.005Z,509.00
2023-04-21T03:16:07.198Z,509.00
2023-04-21T03:17:07.074Z,508.00
2023-04-21T03:18:07.195Z,505.00
2023-04-21T03:19:07.156Z,505.00
2023-04-21T03:20:07.257Z,510.00
2023-04-21T03:21:07.318Z,508.00
2023-04-21T03:22:07.683Z,515.00
2023-04-21T03:23:07.420Z,509.00
2023-04-21T03:24:07.517Z,513.00
2023-04-21T03:25:07.711Z,513.00
2023-04-21T03:26:07.586Z,506.00
2023-04-21T03:27:08.765Z,512.00
2023-04-21T03:28:07.645Z,515.00
2023-04-21T03:29:07.646Z,517.00
2023-04-21T03:30:07.625Z,513.00
2023-04-21T03:31:07.609Z,506.00
2023-04-21T03:32:07.632Z,513.00
2023-04-21T03:33:07.616Z,519.00
2023-04-21T03:34:07.606Z,506.00
2023-04-21T03:35:07.571Z,512.00
2023-04-21T03:36:07.561Z,516.00
2023-04-21T03:37:07.582Z,511.00
2023-04-21T03:38:07.578Z,507.00
2023-04-21T03:39:19.080Z,510.00
2023-04-21T03:40:08.561Z,511.00
2023-04-21T03:41:07.572Z,512.00
2023-04-21T03:42:07.587Z,513.00
2023-04-21T03:43:07.524Z,513.00
2023-04-21T03:44:07.546Z,513.00
2023-04-21T03:45:07.553Z,508.00
2023-04-21T03:46:07.573Z,504.00
2023-04-21T03:47:07.543Z,511.00
2023-04-21T03:48:07.498Z,507.00
2023-04-21T03:49:07.479Z,512.00
2023-04-21T03:50:07.542Z,513.00
2023-04-21T03:51:07.587Z,505.00
2023-04-21T03:52:07.684Z,509.00
2023-04-21T03:53:07.683Z,501.00
2023-04-21T03:54:07.739Z,507.00
2023-04-21T03:55:07.774Z,505.00
2023-04-21T03:56:07.784Z,502.00
2023-04-21T03:57:07.893Z,504.00
2023-04-21T03:58:07.900Z,509.00
2023-04-21T03:59:07.979Z,511.00
2023-04-21T04:00:07.990Z,507.00
2023-04-21T04:01:08.042Z,506.00
2023-04-21T04:02:08.197Z,506.00
2023-04-21T04:03:08.212Z,508.00
2023-04-21T04:04:08.247Z,501.00
2023-04-21T04:05:08.247Z,502.00
2023-04-21T04:06:08.206Z,511.00
2023-04-21T04:07:08.236Z,516.00
2023-04-21T04:08:08.259Z,508.00
2023-04-21T04:09:08.281Z,507.00
2023-04-21T04:10:08.256Z,511.00
2023-04-21T04:11:08.295Z,510.00
2023-04-21T04:12:09.473Z,505.00
2023-04-21T04:13:08.258Z,516.00
2023-04-21T04:14:08.318Z,510.00
2023-04-21T04:15:08.276Z,500.00
2023-04-21T04:16:08.332Z,512.00
2023-04-21T04:17:08.301Z,510.00
2023-04-21T04:18:08.288Z,509.00
2023-04-21T04:19:08.244Z,509.00
2023-04-21T04:20:08.281Z,508.00
2023-04-21T04:21:08.239Z,512.00
2023-04-21T04:22:08.266Z,511.00
2023-04-21T04:23:08.240Z,512.00
2023-04-21T04:24:08.203Z,512.00
2023-04-21T04:25:08.232Z,509.00
2023-04-21T04:26:08.194Z,504.00
2023-04-21T04:27:08.216Z,508.00
2023-04-21T04:28:08.184Z,500.00
2023-04-21T04:29:08.160Z,514.00
2023-04-21T04:30:08.189Z,517.00
2023-04-21T04:31:08.194Z,508.00
2023-04-21T04:32:08.187Z,513.00
2023-04-21T04:33:08.189Z,512.00
2023-04-21T04:34:08.148Z,512.00
2023-04-21T04:35:08.128Z,508.00
2023-04-21T04:36:08.138Z,509.00
2023-04-21T04:37:08.160Z,509.00
2023-04-21T04:38:08.104Z,511.00
2023-04-21T04:39:09.442Z,506.00
2023-04-21T04:40:08.096Z,509.00
2023-04-21T04:41:08.088Z,515.00
2023-04-21T04:42:08.103Z,506.00
2023-04-21T04:43:08.082Z,502.00
2023-04-21T04:44:08.066Z,500.00
2023-04-21T04:45:08.078Z,511.00
2023-04-21T04:46:08.074Z,508.00
2023-04-21T04:47:08.070Z,502.00
2023-04-21T04:48:08.035Z,514.00
2023-04-21T04:49:08.047Z,514.00
2023-04-21T04:50:08.026Z,507.00
2023-04-21T04:51:08.023Z,516.00
2023-04-21T04:52:08.082Z,504.00
2023-04-21T04:53:07.999Z,508.00
2023-04-21T04:54:08.015Z,515.00
2023-04-21T04:55:08.035Z,505.00
2023-04-21T04:56:07.988Z,506.00
2023-04-21T04:57:07.988Z,504.00
2023-04-21T04:58:07.981Z,509.00
2023-04-21T04:59:07.969Z,509.00
2023-04-21T05:00:07.976Z,511.00
2023-04-21T05:01:07.996Z,512.00
2023-04-21T05:02:08.045Z,511.00
2023-04-21T05:03:08.089Z,510.00
2023-04-21T05:04:08.172Z,509.00
2023-04-21T05:05:08.138Z,511.00
2023-04-21T05:06:07.956Z,508.00
2023-04-21T05:07:07.983Z,504.00
2023-04-21T05:08:07.911Z,511.00
2023-04-21T05:09:07.889Z,501.00
2023-04-21T05:10:07.933Z,508.00
2023-04-21T05:11:07.916Z,506.00
2023-04-21T05:12:07.952Z,500.00
2023-04-21T05:13:07.892Z,511.00
2023-04-21T05:14:07.926Z,505.00
2023-04-21T05:15:07.859Z,512.00
2023-04-21T05:16:07.964Z,508.00
2023-04-21T05:17:07.946Z,512.00
2023-04-21T05:18:08.068Z,508.00
2023-04-21T05:19:07.985Z,515.00
2023-04-21T05:20:08.026Z,512.00
2023-04-21T05:21:08.006Z,512.00
2023-04-21T05:22:08.051Z,512.00
2023-04-21T05:23:08.063Z,511.00
2023-04-21T05:24:08.075Z,513.00
2023-04-21T05:25:08.135Z,503.00
2023-04-21T05:26:08.193Z,509.00
2023-04-21T05:27:08.212Z,509.00
2023-04-21T05:28:08.260Z,508.00
2023-04-21T05:29:08.307Z,511.00
2023-04-21T05:30:08.345Z,506.00
2023-04-21T05:31:08.360Z,500.00
2023-04-21T05:32:08.474Z,514.00
2023-04-21T05:33:08.500Z,504.00
2023-04-21T05:34:08.519Z,513.00
2023-04-21T05:35:08.568Z,509.00
2023-04-21T05:36:08.608Z,507.00
2023-04-21T05:37:08.649Z,509.00
2023-04-21T05:38:08.697Z,511.00
2023-04-21T05:39:08.741Z,518.00
2023-04-21T05:40:08.817Z,523.00
2023-04-21T05:41:08.871Z,525.00
2023-04-21T05:42:08.965Z,527.00
2023-04-21T05:43:09.020Z,529.00
2023-04-21T05:44:09.067Z,533.00
2023-04-21T05:45:09.124Z,542.00
2023-04-21T05:46:09.273Z,555.00
2023-04-21T05:47:09.227Z,557.00
2023-04-21T05:48:11.640Z,556.00
2023-04-21T05:49:09.296Z,569.00
2023-04-21T05:50:09.297Z,573.00
2023-04-21T05:51:09.293Z,583.00
2023-04-21T05:52:09.727Z,594.00
2023-04-21T05:53:09.240Z,602.00
2023-04-21T05:54:09.233Z,618.00
2023-04-21T05:55:09.248Z,625.00
2023-04-21T05:56:09.261Z,634.00
2023-04-21T05:57:09.742Z,643.00
2023-04-21T05:58:09.196Z,653.00
2023-04-21T05:59:09.231Z,664.00
2023-04-21T06:00:09.213Z,667.00
2023-04-21T06:01:09.175Z,676.00
2023-04-21T06:02:09.308Z,681.00
2023-04-21T06:03:09.405Z,683.00
2023-04-21T06:04:09.314Z,684.00
2023-04-21T06:05:09.590Z,698.00
2023-04-21T06:06:09.297Z,701.00
2023-04-21T06:07:09.163Z,690.00
2023-04-21T06:08:09.173Z,700.00
2023-04-21T06:09:09.146Z,677.00
2023-04-21T06:10:09.137Z,688.00
2023-04-21T06:11:09.130Z,702.00
2023-04-21T06:12:09.117Z,689.00
2023-04-21T06:13:09.119Z,682.00
2023-04-21T06:14:09.121Z,666.00
2023-04-21T06:15:09.113Z,687.00
2023-04-21T06:16:09.152Z,683.00
2023-04-21T06:17:09.112Z,689.00
2023-04-21T06:18:09.170Z,686.00
2023-04-21T06:19:09.100Z,688.00
2023-04-21T06:20:09.108Z,680.00
2023-04-21T06:21:09.081Z,674.00
2023-04-21T06:22:09.086Z,675.00
2023-04-21T06:23:09.151Z,693.00
2023-04-21T06:24:09.174Z,665.00
2023-04-21T06:25:09.238Z,661.00
2023-04-21T06:26:09.287Z,676.00
2023-04-21T06:27:09.354Z,662.00
2023-04-21T06:28:09.399Z,679.00
2023-04-21T06:29:09.486Z,662.00
2023-04-21T06:30:09.542Z,657.00
2023-04-21T06:31:09.669Z,654.00
2023-04-21T06:32:09.717Z,650.00
2023-04-21T06:33:09.757Z,657.00
2023-04-21T06:34:09.782Z,665.00
2023-04-21T06:35:09.854Z,655.00
2023-04-21T06:36:09.876Z,663.00
2023-04-21T06:37:10.337Z,659.00
2023-04-21T06:38:10.024Z,658.00
2023-04-21T06:39:10.110Z,684.00
2023-04-21T06:40:10.108Z,667.00
2023-04-21T06:41:10.215Z,666.00
2023-04-21T06:42:10.252Z,665.00
2023-04-21T06:43:10.319Z,665.00
2023-04-21T06:44:10.390Z,690.00
2023-04-21T06:45:10.420Z,698.00
2023-04-21T06:46:10.506Z,694.00
2023-04-21T06:47:10.842Z,692.00
2023-04-21T06:48:10.693Z,683.00
2023-04-21T06:49:10.703Z,699.00
2023-04-21T06:50:10.753Z,711.00
2023-04-21T06:51:10.828Z,755.00
2023-04-21T06:52:10.877Z,762.00
2023-04-21T06:53:10.928Z,757.00
2023-04-21T06:54:11.014Z,786.00
2023-04-21T06:55:11.061Z,816.00
2023-04-21T06:56:11.121Z,854.00
2023-04-21T06:57:11.288Z,840.00
2023-04-21T06:58:11.214Z,810.00
2023-04-21T06:59:11.298Z,819.00
2023-04-21T07:00:11.328Z,818.00
2023-04-21T07:01:11.459Z,779.00
2023-04-21T07:02:11.773Z,799.00
2023-04-21T07:03:11.595Z,763.00
2023-04-21T07:04:11.641Z,759.00
2023-04-21T07:05:11.620Z,761.00
2023-04-21T07:06:11.652Z,762.00
2023-04-21T07:07:11.742Z,746.00
2023-04-21T07:08:11.759Z,738.00
2023-04-21T07:09:11.861Z,693.00
2023-04-21T07:10:12.033Z,664.00
2023-04-21T07:11:11.942Z,687.00
2023-04-21T07:12:12.267Z,721.00
2023-04-21T07:13:12.035Z,805.00
2023-04-21T07:14:12.111Z,857.00
2023-04-21T07:15:12.166Z,891.00
2023-04-21T07:16:12.199Z,928.00
2023-04-21T07:17:12.248Z,965.00
2023-04-21T07:18:12.281Z,991.00
2023-04-21T07:19:12.287Z,998.00
2023-04-21T07:20:12.318Z,1054.00
2023-04-21T07:21:12.363Z,1086.00
2023-04-21T07:22:12.361Z,1122.00
2023-04-21T07:23:12.388Z,1148.00
2023-04-21T07:24:12.376Z,1179.00
2023-04-21T07:25:12.421Z,1197.00
2023-04-21T07:26:12.456Z,1203.00
2023-04-21T07:27:12.457Z,1175.00
2023-04-21T07:28:12.483Z,1165.00
2023-04-21T07:29:12.493Z,1169.00
2023-04-21T07:30:12.532Z,1205.00
2023-04-21T07:31:12.565Z,1228.00
2023-04-21T07:32:12.541Z,1216.00
2023-04-21T07:33:12.708Z,1171.00
2023-04-21T07:34:12.594Z,1167.00
2023-04-21T07:35:12.590Z,1156.00
2023-04-21T07:36:12.604Z,1148.00
2023-04-21T07:37:12.645Z,1166.00
2023-04-21T07:38:12.665Z,1163.00
2023-04-21T07:39:12.711Z,1189.00
2023-04-21T07:40:12.712Z,1204.00
2023-04-21T07:41:12.698Z,1253.00
2023-04-21T07:42:12.910Z,1306.00
2023-04-21T07:43:13.272Z,1292.00
2023-04-21T07:44:12.706Z,1310.00
2023-04-21T07:45:12.741Z,1324.00
2023-04-21T07:46:12.827Z,1360.00
2023-04-21T07:47:12.782Z,1348.00
2023-04-21T07:48:12.746Z,1377.00
2023-04-21T07:49:12.754Z,1373.00
2023-04-21T07:50:12.697Z,1432.00
2023-04-21T07:51:12.691Z,1429.00
2023-04-21T07:52:12.713Z,1439.00
2023-04-21T07:53:12.708Z,1439.00
2023-04-21T07:54:12.734Z,1457.00
2023-04-21T07:55:12.771Z,1471.00
2023-04-21T07:56:12.814Z,1497.00
2023-04-21T07:57:12.856Z,1501.00
2023-04-21T07:58:12.845Z,1512.00
2023-04-21T07:59:12.882Z,1519.00
2023-04-21T08:00:12.937Z,1542.00
2023-04-21T08:01:12.944Z,1548.00
2023-04-21T08:02:13.041Z,1573.00
2023-04-21T08:03:13.215Z,1605.00
2023-04-21T08:04:13.150Z,1597.00
2023-04-21T08:05:13.242Z,1605.00
2023-04-21T08:06:13.270Z,1634.00
2023-04-21T08:07:13.793Z,1657.00
2023-04-21T08:08:13.357Z,1655.00
2023-04-21T08:09:13.401Z,1658.00
2023-04-21T08:10:13.594Z,1675.00
2023-04-21T08:11:13.563Z,1669.00
2023-04-21T08:12:13.588Z,1689.00
2023-04-21T08:13:13.691Z,1697.00
2023-04-21T08:14:13.737Z,1725.00
2023-04-21T08:15:13.802Z,1734.00
2023-04-21T08:16:13.929Z,1750.00
2023-04-21T08:17:13.915Z,1767.00
2023-04-21T08:18:14.007Z,1765.00
2023-04-21T08:19:14.019Z,1775.00
2023-04-21T08:20:14.084Z,1781.00
2023-04-21T08:21:14.136Z,1795.00
2023-04-21T08:22:14.216Z,1795.00
2023-04-21T08:23:14.227Z,1808.00
2023-04-21T08:24:14.284Z,1822.00
2023-04-21T08:25:14.337Z,1850.00
2023-04-21T08:26:14.370Z,1841.00
2023-04-21T08:27:14.401Z,1853.00
2023-04-21T08:28:14.464Z,1860.00
2023-04-21T08:29:14.518Z,1872.00
2023-04-21T08:30:14.545Z,1876.00
2023-04-21T08:31:14.607Z,1896.00
2023-04-21T08:32:14.632Z,1903.00
2023-04-21T08:33:14.731Z,1924.00
2023-04-21T08:34:14.725Z,1933.00
2023-04-21T08:35:14.788Z,1940.00
2023-04-21T08:36:28.442Z,1954.00
2023-04-21T08:37:15.766Z,1955.00
2023-04-21T08:38:14.742Z,1956.00
2023-04-21T08:39:14.764Z,1970.00
2023-04-21T08:40:14.708Z,1981.00
2023-04-21T08:41:14.746Z,2001.00
2023-04-21T08:42:14.736Z,2012.00
2023-04-21T08:43:14.801Z,1965.00
2023-04-21T08:44:14.685Z,1964.00
2023-04-21T08:45:14.716Z,1988.00
2023-04-21T08:46:14.741Z,1984.00
2023-04-21T08:47:14.695Z,1969.00
2023-04-21T08:48:14.767Z,1950.00
2023-04-21T08:49:14.683Z,1946.00
2023-04-21T08:50:14.761Z,1862.00
2023-04-21T08:51:14.726Z,1889.00
2023-04-21T08:52:14.785Z,1840.00
2023-04-21T08:53:14.807Z,1810.00
2023-04-21T08:54:14.887Z,1802.00
2023-04-21T08:55:14.890Z,1832.00
2023-04-21T08:56:14.969Z,1828.00
2023-04-21T08:57:16.153Z,1809.00
2023-04-21T08:58:15.027Z,1805.00
2023-04-21T08:59:15.040Z,1822.00
2023-04-21T09:00:15.079Z,1781.00
2023-04-21T09:01:15.184Z,1796.00
2023-04-21T09:02:15.260Z,1784.00
2023-04-21T09:03:25.156Z,1789.00
2023-04-21T09:04:16.388Z,1789.00
2023-04-21T09:05:15.395Z,1791.00
2023-04-21T09:06:15.446Z,1788.00
2023-04-21T09:07:15.206Z,1761.00
2023-04-21T09:08:15.162Z,1778.00
2023-04-21T09:09:15.176Z,1772.00
2023-04-21T09:10:15.143Z,1755.00
2023-04-21T09:11:15.195Z,1733.00
2023-04-21T09:12:15.138Z,1722.00
2023-04-21T09:13:15.172Z,1726.00
2023-04-21T09:14:15.107Z,1702.00
2023-04-21T09:15:15.138Z,1708.00
2023-04-21T09:16:15.205Z,1687.00
2023-04-21T09:17:15.216Z,1671.00
2023-04-21T09:18:15.299Z,1663.00
2023-04-21T09:19:15.268Z,1688.00
2023-04-21T09:20:15.284Z,1710.00
2023-04-21T09:21:15.312Z,1659.00
2023-04-21T09:22:15.344Z,1671.00
2023-04-21T09:23:15.798Z,1690.00
2023-04-21T09:24:15.391Z,1687.00
2023-04-21T09:25:15.412Z,1679.00
2023-04-21T09:26:16.324Z,1654.00
2023-04-21T09:27:15.482Z,1635.00
2023-04-21T09:28:15.500Z,1666.00
2023-04-21T09:29:15.532Z,1648.00
2023-04-21T09:30:15.511Z,1640.00
2023-04-21T09:31:15.699Z,1649.00
2023-04-21T09:32:15.589Z,1627.00
2023-04-21T09:33:27.220Z,1631.00
2023-04-21T09:34:16.741Z,1633.00
2023-04-21T09:35:15.638Z,1636.00
2023-04-21T09:36:15.595Z,1643.00
2023-04-21T09:37:18.197Z,1638.00
2023-04-21T09:38:15.818Z,1653.00
2023-04-21T09:39:29.044Z,1615.00
2023-04-21T09:40:16.560Z,1617.00
2023-04-21T09:41:15.575Z,1604.00
2023-04-21T09:42:15.557Z,1585.00
2023-04-21T09:43:15.820Z,1589.00
2023-04-21T09:44:15.541Z,1542.00
2023-04-21T09:46:15.602Z,1390.00
2023-04-21T09:47:15.528Z,1252.00
2023-04-21T09:48:15.537Z,1210.00
2023-04-21T09:49:15.487Z,1168.00
2023-04-21T09:50:16.379Z,1122.00
2023-04-21T09:51:28.241Z,1028.00
2023-04-21T09:52:19.076Z,1000.00
2023-04-21T09:53:15.468Z,928.00
2023-04-21T09:54:28.320Z,851.00
2023-04-21T09:55:16.479Z,866.00
2023-04-21T09:56:15.440Z,787.00
2023-04-21T09:57:15.425Z,641.00
2023-04-21T09:58:15.460Z,629.00
2023-04-21T09:59:15.431Z,589.00
2023-04-21T10:00:15.441Z,513.00
2023-04-21T10:01:15.600Z,511.00
2023-04-21T10:02:15.493Z,500.00
2023-04-21T10:03:15.573Z,496.00
2023-04-21T10:04:15.855Z,477.00
2023-04-21T10:05:15.590Z,482.00
2023-04-21T10:06:15.647Z,500.00
2023-04-21T10:07:15.683Z,524.00
2023-04-21T10:08:15.763Z,500.00
2023-04-21T10:09:15.792Z,542.00
2023-04-21T10:10:15.881Z,506.00
2023-04-21T10:11:15.926Z,505.00
2023-04-21T10:12:15.972Z,551.00
2023-04-21T10:13:16.009Z,530.00
2023-04-21T10:14:16.083Z,537.00
2023-04-21T10:15:16.130Z,555.00
2023-04-21T10:16:16.206Z,638.00
2023-04-21T10:17:17.854Z,649.00
2023-04-21T10:18:16.362Z,661.00
2023-04-21T10:19:16.377Z,687.00
2023-04-21T10:20:16.444Z,684.00
2023-04-21T10:21:16.519Z,729.00
2023-04-21T10:22:16.548Z,830.00
2023-04-21T10:23:16.586Z,854.00
2023-04-21T10:24:16.706Z,866.00
2023-04-21T10:25:16.707Z,913.00
2023-04-21T10:26:16.726Z,915.00
2023-04-21T10:27:16.771Z,902.00
2023-04-21T10:28:16.837Z,680.00
2023-04-21T10:29:16.940Z,662.00
2023-04-21T10:30:17.083Z,639.00
2023-04-21T10:31:17.048Z,759.00
2023-04-21T10:32:17.114Z,738.00
2023-04-21T10:33:17.362Z,788.00
2023-04-21T10:34:17.179Z,785.00
2023-04-21T10:35:17.219Z,788.00
2023-04-21T10:36:17.237Z,775.00
2023-04-21T10:37:17.307Z,728.00
2023-04-21T10:38:17.811Z,862.00
2023-04-21T10:39:17.577Z,878.00
2023-04-21T10:40:17.430Z,938.00
2023-04-21T10:41:17.498Z,1003.00
2023-04-21T10:42:17.510Z,1036.00
2023-04-21T10:43:17.858Z,1036.00
2023-04-21T10:44:17.640Z,1059.00
2023-04-21T10:45:17.611Z,1079.00
2023-04-21T10:46:17.665Z,1095.00
2023-04-21T10:47:17.742Z,1087.00
2023-04-21T10:48:17.700Z,1122.00
2023-04-21T10:49:17.754Z,1134.00
2023-04-21T10:50:17.791Z,1157.00
2023-04-21T10:51:17.832Z,1148.00
2023-04-21T10:52:17.858Z,1184.00
2023-04-21T10:53:17.920Z,1198.00
2023-04-21T10:54:18.165Z,1202.00
2023-04-21T10:55:17.999Z,1213.00
2023-04-21T10:56:18.036Z,1224.00
2023-04-21T10:57:18.088Z,1233.00
2023-04-21T10:58:18.111Z,1243.00
2023-04-21T10:59:18.150Z,1229.00
2023-04-21T11:00:18.186Z,1236.00
2023-04-21T11:01:18.319Z,1230.00
2023-04-21T11:02:18.614Z,1235.00
2023-04-21T11:03:18.579Z,1231.00
2023-04-21T11:04:18.656Z,1237.00
2023-04-21T11:05:18.440Z,1240.00
2023-04-21T11:06:18.495Z,1251.00
2023-04-21T11:07:18.529Z,1267.00
2023-04-21T11:08:18.563Z,1244.00
2023-04-21T11:09:18.598Z,1254.00
2023-04-21T11:10:18.660Z,1253.00
2023-04-21T11:11:18.669Z,1275.00
2023-04-21T11:12:18.746Z,1266.00
2023-04-21T11:13:18.771Z,1270.00
2023-04-21T11:14:19.072Z,1260.00
2023-04-21T11:15:18.867Z,1270.00
2023-04-21T11:16:18.934Z,1277.00
2023-04-21T11:17:18.995Z,1275.00
2023-04-21T11:18:19.357Z,1272.00
2023-04-21T11:19:19.047Z,1273.00
2023-04-21T11:20:19.077Z,1273.00
2023-04-21T11:21:19.111Z,1280.00
2023-04-21T11:22:19.179Z,1262.00
2023-04-21T11:23:19.230Z,1264.00
2023-04-21T11:24:19.394Z,1291.00
2023-04-21T11:25:19.269Z,1285.00
2023-04-21T11:26:19.373Z,1296.00
2023-04-21T11:27:19.386Z,1297.00
2023-04-21T11:28:19.831Z,1301.00
2023-04-21T11:29:19.481Z,1286.00
2023-04-21T11:30:19.563Z,1293.00
2023-04-21T11:31:19.607Z,1295.00
2023-04-21T11:32:19.647Z,1288.00
2023-04-21T11:33:19.911Z,1288.00
2023-04-21T11:34:19.939Z,1292.00
2023-04-21T11:35:19.760Z,1295.00
2023-04-21T11:36:19.804Z,1290.00
2023-04-21T11:37:19.891Z,1296.00
2023-04-21T11:38:19.900Z,1301.00
2023-04-21T11:39:21.804Z,1287.00
2023-04-21T11:40:20.018Z,1288.00
2023-04-21T11:41:20.058Z,1294.00
2023-04-21T11:42:20.112Z,1310.00
2023-04-21T11:43:20.178Z,1299.00
2023-04-21T11:44:20.252Z,1298.00
2023-04-21T11:45:22.346Z,1315.00
2023-04-21T11:46:20.510Z,1291.00
2023-04-21T11:47:20.532Z,1293.00
2023-04-21T11:48:20.540Z,1289.00
2023-04-21T11:49:20.606Z,1299.00
2023-04-21T11:50:20.674Z,1297.00
2023-04-21T11:51:22.203Z,1298.00
2023-04-21T11:52:20.774Z,1292.00
2023-04-21T11:53:20.817Z,1295.00
2023-04-21T11:54:20.811Z,1296.00
2023-04-21T11:55:20.852Z,1295.00
2023-04-21T11:56:20.898Z,1298.00
2023-04-21T11:57:20.936Z,1283.00
2023-04-21T11:58:20.977Z,1286.00
2023-04-21T11:59:21.360Z,1288.00
2023-04-21T12:00:21.104Z,1296.00
2023-04-21T12:01:21.112Z,1289.00
2023-04-21T12:02:21.194Z,1297.00
2023-04-21T12:03:21.294Z,1286.00
2023-04-21T12:04:21.464Z,1278.00
2023-04-21T12:05:21.307Z,1277.00
2023-04-21T12:06:21.390Z,1276.00
2023-04-21T12:07:21.384Z,1283.00
2023-04-21T12:08:21.446Z,1276.00
2023-04-21T12:09:21.499Z,1268.00
2023-04-21T12:10:21.503Z,1276.00
2023-04-21T12:11:21.541Z,1270.00
2023-04-21T12:12:21.583Z,1317.00
2023-04-21T12:13:21.625Z,1316.00
2023-04-21T12:14:21.690Z,1455.00
2023-04-21T12:15:21.860Z,1529.00
2023-04-21T12:16:21.803Z,1823.00
2023-04-21T12:17:21.815Z,1763.00
2023-04-21T12:18:21.863Z,1656.00
2023-04-21T12:19:21.880Z,1641.00
2023-04-21T12:20:21.927Z,1564.00
2023-04-21T12:21:21.959Z,1536.00
2023-04-21T12:22:22.024Z,1528.00